sensor_id;sensor_type;location;lat;lon;timestamp;P1;durP1;ratioP1;P2;durP2;ratioP2
39454;SDS011;25155;41.890;23.446;2023-04-16T00:00:13;7.13;;;4.30;;
39454;SDS011;25155;41.890;23.446;2023-04-16T00:02:40;6.18;;;3.70;;
39454;SDS011;25155;41.890;23.446;2023-04-16T00:05:07;6.40;;;3.78;;
39454;SDS011;25155;41.890;23.446;2023-04-16T00:07:35;6.22;;;3.20;;
39454;SDS011;25155;41.890;23.446;2023-04-16T00:10:03;4.97;;;2.85;;
39454;SDS011;25155;41.890;23.446;2023-04-16T00:12:31;4.93;;;2.70;;
39454;SDS011;25155;41.890;23.446;2023-04-16T00:14:58;4.97;;;3.30;;
39454;SDS011;25155;41.890;23.446;2023-04-16T00:17:25;4.72;;;2.63;;
39454;SDS011;25155;41.890;23.446;2023-04-16T00:19:52;5.40;;;3.28;;
39454;SDS011;25155;41.890;23.446;2023-04-16T00:22:19;4.88;;;2.85;;
39454;SDS011;25155;41.890;23.446;2023-04-16T00:24:46;7.68;;;3.42;;
39454;SDS011;25155;41.890;23.446;2023-04-16T00:27:15;5.00;;;3.17;;
39454;SDS011;25155;41.890;23.446;2023-04-16T00:29:42;5.22;;;3.30;;
39454;SDS011;25155;41.890;23.446;2023-04-16T00:32:09;6.75;;;3.83;;
39454;SDS011;25155;41.890;23.446;2023-04-16T00:34:36;7.20;;;3.30;;
39454;SDS011;25155;41.890;23.446;2023-04-16T00:37:03;4.78;;;2.95;;
39454;SDS011;25155;41.890;23.446;2023-04-16T00:39:30;5.07;;;2.70;;
39454;SDS011;25155;41.890;23.446;2023-04-16T00:41:57;4.18;;;2.53;;
39454;SDS011;25155;41.890;23.446;2023-04-16T00:44:26;3.63;;;2.20;;
39454;SDS011;25155;41.890;23.446;2023-04-16T00:46:53;3.65;;;2.30;;
39454;SDS011;25155;41.890;23.446;2023-04-16T00:49:22;3.92;;;2.47;;
39454;SDS011;25155;41.890;23.446;2023-04-16T00:51:49;4.63;;;2.47;;
39454;SDS011;25155;41.890;23.446;2023-04-16T00:54:16;4.22;;;2.55;;
39454;SDS011;25155;41.890;23.446;2023-04-16T00:56:44;4.47;;;2.75;;
39454;SDS011;25155;41.890;23.446;2023-04-16T00:59:12;4.70;;;2.60;;
39454;SDS011;25155;41.890;23.446;2023-04-16T01:01:40;4.75;;;2.63;;
39454;SDS011;25155;41.890;23.446;2023-04-16T01:04:07;4.68;;;2.50;;
39454;SDS011;25155;41.890;23.446;2023-04-16T01:06:35;4.38;;;2.45;;
39454;SDS011;25155;41.890;23.446;2023-04-16T01:09:02;4.18;;;2.22;;
39454;SDS011;25155;41.890;23.446;2023-04-16T01:11:29;3.65;;;2.10;;
39454;SDS011;25155;41.890;23.446;2023-04-16T01:13:56;3.50;;;2.00;;
39454;SDS011;25155;41.890;23.446;2023-04-16T01:16:23;2.60;;;1.95;;
39454;SDS011;25155;41.890;23.446;2023-04-16T01:18:52;3.33;;;2.10;;
39454;SDS011;25155;41.890;23.446;2023-04-16T01:21:20;4.07;;;2.20;;
39454;SDS011;25155;41.890;23.446;2023-04-16T01:23:48;4.60;;;3.00;;
39454;SDS011;25155;41.890;23.446;2023-04-16T01:26:15;4.70;;;2.70;;
39454;SDS011;25155;41.890;23.446;2023-04-16T01:28:42;3.50;;;2.20;;
39454;SDS011;25155;41.890;23.446;2023-04-16T01:31:09;3.55;;;2.10;;
39454;SDS011;25155;41.890;23.446;2023-04-16T01:33:36;3.33;;;2.00;;
39454;SDS011;25155;41.890;23.446;2023-04-16T01:36:03;3.45;;;2.03;;
39454;SDS011;25155;41.890;23.446;2023-04-16T01:38:32;3.67;;;2.08;;
39454;SDS011;25155;41.890;23.446;2023-04-16T01:40:59;5.47;;;2.60;;
39454;SDS011;25155;41.890;23.446;2023-04-16T01:43:26;5.65;;;3.20;;
39454;SDS011;25155;41.890;23.446;2023-04-16T01:45:57;6.53;;;3.50;;
39454;SDS011;25155;41.890;23.446;2023-04-16T01:48:36;6.10;;;3.67;;
39454;SDS011;25155;41.890;23.446;2023-04-16T01:51:03;5.85;;;3.25;;
39454;SDS011;25155;41.890;23.446;2023-04-16T01:53:32;6.03;;;3.67;;
39454;SDS011;25155;41.890;23.446;2023-04-16T01:55:59;5.68;;;3.60;;
39454;SDS011;25155;41.890;23.446;2023-04-16T01:58:27;5.18;;;3.25;;
39454;SDS011;25155;41.890;23.446;2023-04-16T02:00:55;5.80;;;3.47;;
39454;SDS011;25155;41.890;23.446;2023-04-16T02:03:22;5.65;;;3.30;;
39454;SDS011;25155;41.890;23.446;2023-04-16T02:05:49;5.40;;;2.95;;
39454;SDS011;25155;41.890;23.446;2023-04-16T02:08:17;6.85;;;3.60;;
39454;SDS011;25155;41.890;23.446;2023-04-16T02:10:46;6.28;;;3.85;;
39454;SDS011;25155;41.890;23.446;2023-04-16T02:13:13;6.07;;;3.60;;
39454;SDS011;25155;41.890;23.446;2023-04-16T02:15:43;5.00;;;3.03;;
39454;SDS011;25155;41.890;23.446;2023-04-16T02:18:11;4.63;;;3.03;;
39454;SDS011;25155;41.890;23.446;2023-04-16T02:20:38;5.00;;;2.83;;
39454;SDS011;25155;41.890;23.446;2023-04-16T02:23:07;5.35;;;2.80;;
39454;SDS011;25155;41.890;23.446;2023-04-16T02:25:37;4.50;;;2.70;;
39454;SDS011;25155;41.890;23.446;2023-04-16T02:28:07;4.50;;;2.42;;
39454;SDS011;25155;41.890;23.446;2023-04-16T02:30:34;4.07;;;2.40;;
39454;SDS011;25155;41.890;23.446;2023-04-16T02:33:02;6.22;;;3.17;;
39454;SDS011;25155;41.890;23.446;2023-04-16T02:35:30;5.03;;;2.83;;
39454;SDS011;25155;41.890;23.446;2023-04-16T02:37:57;4.25;;;2.58;;
39454;SDS011;25155;41.890;23.446;2023-04-16T02:40:24;4.63;;;2.60;;
39454;SDS011;25155;41.890;23.446;2023-04-16T02:42:52;3.70;;;2.30;;
39454;SDS011;25155;41.890;23.446;2023-04-16T02:45:21;3.80;;;2.42;;
39454;SDS011;25155;41.890;23.446;2023-04-16T02:47:48;5.25;;;2.70;;
39454;SDS011;25155;41.890;23.446;2023-04-16T02:50:16;5.07;;;3.00;;
39454;SDS011;25155;41.890;23.446;2023-04-16T02:52:44;5.50;;;3.08;;
39454;SDS011;25155;41.890;23.446;2023-04-16T02:55:11;5.30;;;2.83;;
39454;SDS011;25155;41.890;23.446;2023-04-16T02:57:38;7.55;;;3.90;;
39454;SDS011;25155;41.890;23.446;2023-04-16T03:00:07;5.13;;;3.05;;
39454;SDS011;25155;41.890;23.446;2023-04-16T03:02:36;4.82;;;2.70;;
39454;SDS011;25155;41.890;23.446;2023-04-16T03:05:03;4.70;;;2.40;;
39454;SDS011;25155;41.890;23.446;2023-04-16T03:07:30;3.95;;;2.50;;
39454;SDS011;25155;41.890;23.446;2023-04-16T03:09:57;5.70;;;2.88;;
39454;SDS011;25155;41.890;23.446;2023-04-16T03:12:24;4.50;;;2.65;;
39454;SDS011;25155;41.890;23.446;2023-04-16T03:14:52;4.47;;;2.90;;
39454;SDS011;25155;41.890;23.446;2023-04-16T03:17:19;5.80;;;2.90;;
39454;SDS011;25155;41.890;23.446;2023-04-16T03:19:47;5.68;;;3.00;;
39454;SDS011;25155;41.890;23.446;2023-04-16T03:22:15;4.72;;;2.90;;
39454;SDS011;25155;41.890;23.446;2023-04-16T03:24:42;4.95;;;2.92;;
39454;SDS011;25155;41.890;23.446;2023-04-16T03:27:09;6.57;;;2.80;;
39454;SDS011;25155;41.890;23.446;2023-04-16T03:29:36;5.22;;;2.63;;
39454;SDS011;25155;41.890;23.446;2023-04-16T03:32:03;4.05;;;2.78;;
39454;SDS011;25155;41.890;23.446;2023-04-16T03:34:30;4.20;;;2.70;;
39454;SDS011;25155;41.890;23.446;2023-04-16T03:36:59;5.30;;;3.20;;
39454;SDS011;25155;41.890;23.446;2023-04-16T03:39:26;5.70;;;3.50;;
39454;SDS011;25155;41.890;23.446;2023-04-16T03:41:53;5.35;;;3.20;;
39454;SDS011;25155;41.890;23.446;2023-04-16T03:44:20;5.88;;;3.47;;
39454;SDS011;25155;41.890;23.446;2023-04-16T03:46:47;5.20;;;3.17;;
39454;SDS011;25155;41.890;23.446;2023-04-16T03:49:14;5.60;;;3.22;;
39454;SDS011;25155;41.890;23.446;2023-04-16T03:51:41;5.57;;;3.35;;
39454;SDS011;25155;41.890;23.446;2023-04-16T03:54:10;5.72;;;3.42;;
39454;SDS011;25155;41.890;23.446;2023-04-16T03:56:38;5.22;;;3.10;;
39454;SDS011;25155;41.890;23.446;2023-04-16T03:59:06;5.30;;;3.05;;
39454;SDS011;25155;41.890;23.446;2023-04-16T04:01:33;5.15;;;3.33;;
39454;SDS011;25155;41.890;23.446;2023-04-16T04:04:00;6.55;;;3.50;;
39454;SDS011;25155;41.890;23.446;2023-04-16T04:06:27;7.68;;;4.63;;
39454;SDS011;25155;41.890;23.446;2023-04-16T04:08:55;8.98;;;4.70;;
39454;SDS011;25155;41.890;23.446;2023-04-16T04:11:23;8.27;;;4.35;;
39454;SDS011;25155;41.890;23.446;2023-04-16T04:13:50;6.70;;;3.97;;
39454;SDS011;25155;41.890;23.446;2023-04-16T04:16:18;4.90;;;3.25;;
39454;SDS011;25155;41.890;23.446;2023-04-16T04:18:45;5.10;;;3.17;;
39454;SDS011;25155;41.890;23.446;2023-04-16T04:21:12;6.85;;;3.83;;
39454;SDS011;25155;41.890;23.446;2023-04-16T04:23:39;5.72;;;3.30;;
39454;SDS011;25155;41.890;23.446;2023-04-16T04:26:07;5.47;;;3.42;;
39454;SDS011;25155;41.890;23.446;2023-04-16T04:28:36;5.47;;;3.38;;
39454;SDS011;25155;41.890;23.446;2023-04-16T04:31:03;6.10;;;3.20;;
39454;SDS011;25155;41.890;23.446;2023-04-16T04:33:30;5.63;;;3.40;;
39454;SDS011;25155;41.890;23.446;2023-04-16T04:35:57;7.93;;;4.60;;
39454;SDS011;25155;41.890;23.446;2023-04-16T04:38:24;6.97;;;4.50;;
39454;SDS011;25155;41.890;23.446;2023-04-16T04:40:51;6.10;;;3.97;;
39454;SDS011;25155;41.890;23.446;2023-04-16T04:43:19;6.70;;;4.10;;
39454;SDS011;25155;41.890;23.446;2023-04-16T04:45:48;6.53;;;3.95;;
39454;SDS011;25155;41.890;23.446;2023-04-16T04:48:15;6.80;;;4.38;;
39454;SDS011;25155;41.890;23.446;2023-04-16T04:50:43;9.05;;;4.47;;
39454;SDS011;25155;41.890;23.446;2023-04-16T04:53:10;5.95;;;3.92;;
39454;SDS011;25155;41.890;23.446;2023-04-16T04:55:39;6.63;;;3.92;;
39454;SDS011;25155;41.890;23.446;2023-04-16T04:58:06;7.00;;;4.25;;
39454;SDS011;25155;41.890;23.446;2023-04-16T05:00:34;6.35;;;3.83;;
39454;SDS011;25155;41.890;23.446;2023-04-16T05:03:03;7.85;;;4.28;;
39454;SDS011;25155;41.890;23.446;2023-04-16T05:05:31;6.03;;;4.15;;
39454;SDS011;25155;41.890;23.446;2023-04-16T05:07:59;8.57;;;5.45;;
39454;SDS011;25155;41.890;23.446;2023-04-16T05:10:26;7.65;;;5.05;;
39454;SDS011;25155;41.890;23.446;2023-04-16T05:12:53;9.40;;;5.38;;
39454;SDS011;25155;41.890;23.446;2023-04-16T05:15:20;7.28;;;4.70;;
39454;SDS011;25155;41.890;23.446;2023-04-16T05:17:47;7.45;;;4.88;;
39454;SDS011;25155;41.890;23.446;2023-04-16T05:20:16;7.53;;;4.78;;
39454;SDS011;25155;41.890;23.446;2023-04-16T05:22:43;6.43;;;4.28;;
39454;SDS011;25155;41.890;23.446;2023-04-16T05:25:10;8.18;;;5.50;;
39454;SDS011;25155;41.890;23.446;2023-04-16T05:27:37;10.60;;;6.47;;
39454;SDS011;25155;41.890;23.446;2023-04-16T05:30:05;10.60;;;6.88;;
39454;SDS011;25155;41.890;23.446;2023-04-16T05:32:33;10.40;;;6.30;;
39454;SDS011;25155;41.890;23.446;2023-04-16T05:35:00;9.35;;;6.00;;
39454;SDS011;25155;41.890;23.446;2023-04-16T05:37:29;9.40;;;5.88;;
39454;SDS011;25155;41.890;23.446;2023-04-16T05:39:56;11.25;;;7.78;;
39454;SDS011;25155;41.890;23.446;2023-04-16T05:42:23;9.07;;;6.15;;
39454;SDS011;25155;41.890;23.446;2023-04-16T05:44:50;8.60;;;5.93;;
39454;SDS011;25155;41.890;23.446;2023-04-16T05:47:17;7.68;;;5.28;;
39454;SDS011;25155;41.890;23.446;2023-04-16T05:49:44;7.13;;;5.03;;
39454;SDS011;25155;41.890;23.446;2023-04-16T05:52:11;6.57;;;4.50;;
39454;SDS011;25155;41.890;23.446;2023-04-16T05:54:40;10.93;;;6.40;;
39454;SDS011;25155;41.890;23.446;2023-04-16T05:57:07;8.95;;;5.32;;
39454;SDS011;25155;41.890;23.446;2023-04-16T05:59:34;10.57;;;6.13;;
39454;SDS011;25155;41.890;23.446;2023-04-16T06:02:02;9.88;;;6.90;;
39454;SDS011;25155;41.890;23.446;2023-04-16T06:04:29;15.02;;;10.55;;
39454;SDS011;25155;41.890;23.446;2023-04-16T06:06:56;13.38;;;9.55;;
39454;SDS011;25155;41.890;23.446;2023-04-16T06:09:23;13.77;;;8.80;;
39454;SDS011;25155;41.890;23.446;2023-04-16T06:11:51;11.77;;;7.53;;
39454;SDS011;25155;41.890;23.446;2023-04-16T06:14:18;14.93;;;10.10;;
39454;SDS011;25155;41.890;23.446;2023-04-16T06:16:45;32.55;;;20.60;;
39454;SDS011;25155;41.890;23.446;2023-04-16T06:19:13;27.67;;;18.35;;
39454;SDS011;25155;41.890;23.446;2023-04-16T06:21:40;32.20;;;21.63;;
39454;SDS011;25155;41.890;23.446;2023-04-16T06:24:07;66.35;;;44.63;;
39454;SDS011;25155;41.890;23.446;2023-04-16T06:26:34;54.50;;;36.47;;
39454;SDS011;25155;41.890;23.446;2023-04-16T06:29:02;47.75;;;33.60;;
39454;SDS011;25155;41.890;23.446;2023-04-16T06:31:30;36.65;;;25.50;;
39454;SDS011;25155;41.890;23.446;2023-04-16T06:33:57;31.90;;;21.65;;
39454;SDS011;25155;41.890;23.446;2023-04-16T06:36:24;26.55;;;17.52;;
39454;SDS011;25155;41.890;23.446;2023-04-16T06:38:53;23.85;;;16.02;;
39454;SDS011;25155;41.890;23.446;2023-04-16T06:41:20;19.08;;;11.98;;
39454;SDS011;25155;41.890;23.446;2023-04-16T06:43:49;10.85;;;7.82;;
39454;SDS011;25155;41.890;23.446;2023-04-16T06:46:18;8.93;;;5.93;;
39454;SDS011;25155;41.890;23.446;2023-04-16T06:48:45;9.65;;;5.95;;
39454;SDS011;25155;41.890;23.446;2023-04-16T06:51:12;8.00;;;5.00;;
39454;SDS011;25155;41.890;23.446;2023-04-16T06:53:39;9.90;;;6.93;;
39454;SDS011;25155;41.890;23.446;2023-04-16T06:56:07;8.60;;;5.40;;
39454;SDS011;25155;41.890;23.446;2023-04-16T06:58:34;11.40;;;4.97;;
39454;SDS011;25155;41.890;23.446;2023-04-16T07:01:01;10.73;;;4.85;;
39454;SDS011;25155;41.890;23.446;2023-04-16T07:03:30;7.15;;;4.03;;
39454;SDS011;25155;41.890;23.446;2023-04-16T07:05:57;6.60;;;4.00;;
39454;SDS011;25155;41.890;23.446;2023-04-16T07:08:24;7.72;;;4.30;;
39454;SDS011;25155;41.890;23.446;2023-04-16T07:10:51;6.20;;;4.07;;
39454;SDS011;25155;41.890;23.446;2023-04-16T07:13:18;5.85;;;3.75;;
39454;SDS011;25155;41.890;23.446;2023-04-16T07:15:46;7.15;;;4.38;;
39454;SDS011;25155;41.890;23.446;2023-04-16T07:18:13;6.82;;;3.80;;
39454;SDS011;25155;41.890;23.446;2023-04-16T07:20:42;5.82;;;3.60;;
39454;SDS011;25155;41.890;23.446;2023-04-16T07:23:09;7.50;;;3.60;;
39454;SDS011;25155;41.890;23.446;2023-04-16T07:25:36;6.55;;;3.40;;
39454;SDS011;25155;41.890;23.446;2023-04-16T07:28:03;4.57;;;2.90;;
39454;SDS011;25155;41.890;23.446;2023-04-16T07:30:30;5.63;;;3.17;;
39454;SDS011;25155;41.890;23.446;2023-04-16T07:32:59;6.03;;;3.30;;
39454;SDS011;25155;41.890;23.446;2023-04-16T07:35:26;5.13;;;3.30;;
39454;SDS011;25155;41.890;23.446;2023-04-16T07:37:55;7.25;;;3.30;;
39454;SDS011;25155;41.890;23.446;2023-04-16T07:40:22;7.53;;;3.00;;
39454;SDS011;25155;41.890;23.446;2023-04-16T07:42:49;6.43;;;3.38;;
39454;SDS011;25155;41.890;23.446;2023-04-16T07:45:17;5.50;;;3.38;;
39454;SDS011;25155;41.890;23.446;2023-04-16T07:47:44;5.05;;;2.80;;
39454;SDS011;25155;41.890;23.446;2023-04-16T07:50:11;5.13;;;2.70;;
39454;SDS011;25155;41.890;23.446;2023-04-16T07:52:41;7.22;;;3.40;;
39454;SDS011;25155;41.890;23.446;2023-04-16T07:55:11;5.30;;;2.85;;
39454;SDS011;25155;41.890;23.446;2023-04-16T07:57:38;5.05;;;2.78;;
39454;SDS011;25155;41.890;23.446;2023-04-16T08:00:06;4.65;;;2.60;;
39454;SDS011;25155;41.890;23.446;2023-04-16T08:02:34;4.32;;;2.53;;
39454;SDS011;25155;41.890;23.446;2023-04-16T08:05:01;5.07;;;2.45;;
39454;SDS011;25155;41.890;23.446;2023-04-16T08:07:28;4.20;;;2.45;;
39454;SDS011;25155;41.890;23.446;2023-04-16T08:09:55;5.10;;;2.30;;
39454;SDS011;25155;41.890;23.446;2023-04-16T08:12:24;3.90;;;2.08;;
39454;SDS011;25155;41.890;23.446;2023-04-16T08:14:51;5.03;;;2.58;;
39454;SDS011;25155;41.890;23.446;2023-04-16T08:17:18;4.53;;;2.53;;
39454;SDS011;25155;41.890;23.446;2023-04-16T08:19:45;5.88;;;2.40;;
39454;SDS011;25155;41.890;23.446;2023-04-16T08:22:12;4.05;;;2.00;;
39454;SDS011;25155;41.890;23.446;2023-04-16T08:24:40;3.83;;;2.40;;
39454;SDS011;25155;41.890;23.446;2023-04-16T08:27:07;3.83;;;2.33;;
39454;SDS011;25155;41.890;23.446;2023-04-16T08:29:36;5.03;;;2.50;;
39454;SDS011;25155;41.890;23.446;2023-04-16T08:32:03;4.68;;;2.40;;
39454;SDS011;25155;41.890;23.446;2023-04-16T08:34:31;5.07;;;2.28;;
39454;SDS011;25155;41.890;23.446;2023-04-16T08:36:58;4.57;;;2.40;;
39454;SDS011;25155;41.890;23.446;2023-04-16T08:39:25;5.00;;;2.35;;
39454;SDS011;25155;41.890;23.446;2023-04-16T08:41:52;4.25;;;2.40;;
39454;SDS011;25155;41.890;23.446;2023-04-16T08:44:23;5.00;;;2.50;;
39454;SDS011;25155;41.890;23.446;2023-04-16T08:46:54;6.20;;;2.30;;
39454;SDS011;25155;41.890;23.446;2023-04-16T08:49:23;3.95;;;2.10;;
39454;SDS011;25155;41.890;23.446;2023-04-16T08:51:52;4.43;;;2.28;;
39454;SDS011;25155;41.890;23.446;2023-04-16T08:54:24;6.57;;;3.05;;
39454;SDS011;25155;41.890;23.446;2023-04-16T08:56:58;5.13;;;2.47;;
39454;SDS011;25155;41.890;23.446;2023-04-16T08:59:25;5.55;;;2.42;;
39454;SDS011;25155;41.890;23.446;2023-04-16T09:01:56;3.38;;;1.90;;
39454;SDS011;25155;41.890;23.446;2023-04-16T09:04:25;5.65;;;2.55;;
39454;SDS011;25155;41.890;23.446;2023-04-16T09:06:53;4.35;;;2.42;;
39454;SDS011;25155;41.890;23.446;2023-04-16T09:09:22;6.05;;;2.95;;
39454;SDS011;25155;41.890;23.446;2023-04-16T09:11:51;5.10;;;2.88;;
39454;SDS011;25155;41.890;23.446;2023-04-16T09:14:19;3.95;;;2.22;;
39454;SDS011;25155;41.890;23.446;2023-04-16T09:16:47;3.40;;;2.10;;
39454;SDS011;25155;41.890;23.446;2023-04-16T09:21:47;4.28;;;2.30;;
39454;SDS011;25155;41.890;23.446;2023-04-16T09:24:14;4.30;;;2.20;;
39454;SDS011;25155;41.890;23.446;2023-04-16T09:26:42;5.25;;;2.20;;
39454;SDS011;25155;41.890;23.446;2023-04-16T09:29:09;3.28;;;2.08;;
39454;SDS011;25155;41.890;23.446;2023-04-16T09:31:36;6.38;;;2.50;;
39454;SDS011;25155;41.890;23.446;2023-04-16T09:34:03;6.78;;;2.50;;
39454;SDS011;25155;41.890;23.446;2023-04-16T09:36:33;5.70;;;2.35;;
39454;SDS011;25155;41.890;23.446;2023-04-16T09:39:02;4.60;;;2.20;;
39454;SDS011;25155;41.890;23.446;2023-04-16T09:41:30;3.85;;;1.80;;
39454;SDS011;25155;41.890;23.446;2023-04-16T09:44:01;3.83;;;1.73;;
39454;SDS011;25155;41.890;23.446;2023-04-16T09:46:30;4.60;;;1.98;;
39454;SDS011;25155;41.890;23.446;2023-04-16T09:49:03;4.43;;;2.00;;
39454;SDS011;25155;41.890;23.446;2023-04-16T09:51:36;3.70;;;2.10;;
39454;SDS011;25155;41.890;23.446;2023-04-16T09:54:04;4.05;;;1.80;;
39454;SDS011;25155;41.890;23.446;2023-04-16T09:56:31;5.15;;;2.10;;
39454;SDS011;25155;41.890;23.446;2023-04-16T09:58:58;3.55;;;1.90;;
39454;SDS011;25155;41.890;23.446;2023-04-16T10:01:26;5.75;;;2.00;;
39454;SDS011;25155;41.890;23.446;2023-04-16T10:03:53;3.30;;;1.70;;
39454;SDS011;25155;41.890;23.446;2023-04-16T10:06:21;4.35;;;1.65;;
39454;SDS011;25155;41.890;23.446;2023-04-16T10:08:51;3.22;;;1.60;;
39454;SDS011;25155;41.890;23.446;2023-04-16T10:11:21;5.10;;;2.05;;
39454;SDS011;25155;41.890;23.446;2023-04-16T10:13:48;3.15;;;1.75;;
39454;SDS011;25155;41.890;23.446;2023-04-16T10:16:16;3.58;;;1.88;;
39454;SDS011;25155;41.890;23.446;2023-04-16T10:18:43;4.93;;;2.08;;
39454;SDS011;25155;41.890;23.446;2023-04-16T10:21:12;5.18;;;2.58;;
39454;SDS011;25155;41.890;23.446;2023-04-16T10:23:41;4.85;;;2.25;;
39454;SDS011;25155;41.890;23.446;2023-04-16T10:26:10;3.90;;;2.00;;
39454;SDS011;25155;41.890;23.446;2023-04-16T10:28:38;2.67;;;1.70;;
39454;SDS011;25155;41.890;23.446;2023-04-16T10:31:06;5.38;;;2.17;;
39454;SDS011;25155;41.890;23.446;2023-04-16T10:33:35;3.53;;;2.10;;
39454;SDS011;25155;41.890;23.446;2023-04-16T10:36:08;4.57;;;2.10;;
39454;SDS011;25155;41.890;23.446;2023-04-16T10:38:37;4.63;;;1.80;;
39454;SDS011;25155;41.890;23.446;2023-04-16T10:41:05;3.90;;;2.00;;
39454;SDS011;25155;41.890;23.446;2023-04-16T10:43:38;7.70;;;2.30;;
39454;SDS011;25155;41.890;23.446;2023-04-16T10:46:19;3.60;;;1.70;;
39454;SDS011;25155;41.890;23.446;2023-04-16T10:48:50;3.22;;;1.60;;
39454;SDS011;25155;41.890;23.446;2023-04-16T10:51:23;2.92;;;1.55;;
39454;SDS011;25155;41.890;23.446;2023-04-16T10:53:53;4.32;;;1.98;;
39454;SDS011;25155;41.890;23.446;2023-04-16T10:56:24;4.22;;;1.90;;
39454;SDS011;25155;41.890;23.446;2023-04-16T11:01:31;4.75;;;1.90;;
39454;SDS011;25155;41.890;23.446;2023-04-16T11:03:59;3.60;;;1.90;;
39454;SDS011;25155;41.890;23.446;2023-04-16T11:06:27;5.40;;;2.10;;
39454;SDS011;25155;41.890;23.446;2023-04-16T11:08:56;4.55;;;2.08;;
39454;SDS011;25155;41.890;23.446;2023-04-16T11:11:23;3.15;;;1.77;;
39454;SDS011;25155;41.890;23.446;2023-04-16T11:13:55;4.50;;;2.33;;
39454;SDS011;25155;41.890;23.446;2023-04-16T11:16:23;5.35;;;2.55;;
39454;SDS011;25155;41.890;23.446;2023-04-16T11:18:52;4.88;;;2.40;;
39454;SDS011;25155;41.890;23.446;2023-04-16T11:21:21;4.15;;;2.20;;
39454;SDS011;25155;41.890;23.446;2023-04-16T11:23:49;5.32;;;2.00;;
39454;SDS011;25155;41.890;23.446;2023-04-16T11:26:24;4.75;;;1.90;;
39454;SDS011;25155;41.890;23.446;2023-04-16T11:28:56;6.82;;;2.17;;
39454;SDS011;25155;41.890;23.446;2023-04-16T11:31:24;3.15;;;1.90;;
39454;SDS011;25155;41.890;23.446;2023-04-16T11:33:54;4.55;;;2.35;;
39454;SDS011;25155;41.890;23.446;2023-04-16T11:36:22;4.82;;;2.30;;
39454;SDS011;25155;41.890;23.446;2023-04-16T11:38:49;3.50;;;2.08;;
39454;SDS011;25155;41.890;23.446;2023-04-16T11:41:19;3.03;;;1.70;;
39454;SDS011;25155;41.890;23.446;2023-04-16T11:43:47;3.88;;;1.92;;
39454;SDS011;25155;41.890;23.446;2023-04-16T11:46:15;3.75;;;1.90;;
39454;SDS011;25155;41.890;23.446;2023-04-16T11:48:46;3.60;;;1.75;;
39454;SDS011;25155;41.890;23.446;2023-04-16T11:51:14;3.80;;;2.17;;
39454;SDS011;25155;41.890;23.446;2023-04-16T11:53:45;4.78;;;2.53;;
39454;SDS011;25155;41.890;23.446;2023-04-16T11:56:13;5.43;;;2.55;;
39454;SDS011;25155;41.890;23.446;2023-04-16T11:58:42;5.97;;;2.45;;
39454;SDS011;25155;41.890;23.446;2023-04-16T12:01:10;4.55;;;2.42;;
39454;SDS011;25155;41.890;23.446;2023-04-16T12:03:40;7.75;;;3.25;;
39454;SDS011;25155;41.890;23.446;2023-04-16T12:06:10;4.30;;;2.20;;
39454;SDS011;25155;41.890;23.446;2023-04-16T12:08:37;4.82;;;2.28;;
39454;SDS011;25155;41.890;23.446;2023-04-16T12:11:04;4.40;;;2.22;;
39454;SDS011;25155;41.890;23.446;2023-04-16T12:13:32;5.90;;;2.83;;
39454;SDS011;25155;41.890;23.446;2023-04-16T12:16:15;5.78;;;2.10;;
39454;SDS011;25155;41.890;23.446;2023-04-16T12:18:59;7.30;;;2.50;;
39454;SDS011;25155;41.890;23.446;2023-04-16T12:21:35;4.97;;;2.30;;
39454;SDS011;25155;41.890;23.446;2023-04-16T12:24:03;8.95;;;3.00;;
39454;SDS011;25155;41.890;23.446;2023-04-16T12:26:38;5.32;;;2.40;;
39454;SDS011;25155;41.890;23.446;2023-04-16T12:29:14;4.43;;;2.20;;
39454;SDS011;25155;41.890;23.446;2023-04-16T12:31:42;4.82;;;2.05;;
39454;SDS011;25155;41.890;23.446;2023-04-16T12:34:10;5.50;;;2.83;;
39454;SDS011;25155;41.890;23.446;2023-04-16T12:36:39;5.50;;;2.30;;
39454;SDS011;25155;41.890;23.446;2023-04-16T12:39:07;5.55;;;2.60;;
39454;SDS011;25155;41.890;23.446;2023-04-16T12:41:35;6.32;;;2.95;;
39454;SDS011;25155;41.890;23.446;2023-04-16T12:44:03;5.13;;;2.45;;
39454;SDS011;25155;41.890;23.446;2023-04-16T12:46:33;6.20;;;2.63;;
39454;SDS011;25155;41.890;23.446;2023-04-16T12:49:02;5.00;;;2.40;;
39454;SDS011;25155;41.890;23.446;2023-04-16T12:51:31;5.63;;;2.75;;
39454;SDS011;25155;41.890;23.446;2023-04-16T12:53:59;8.25;;;3.08;;
39454;SDS011;25155;41.890;23.446;2023-04-16T12:56:26;9.05;;;3.35;;
39454;SDS011;25155;41.890;23.446;2023-04-16T12:58:54;6.13;;;2.83;;
39454;SDS011;25155;41.890;23.446;2023-04-16T13:01:21;9.07;;;2.85;;
39454;SDS011;25155;41.890;23.446;2023-04-16T13:03:49;8.20;;;3.28;;
39454;SDS011;25155;41.890;23.446;2023-04-16T13:06:16;8.82;;;3.88;;
39454;SDS011;25155;41.890;23.446;2023-04-16T13:08:45;7.68;;;3.42;;
39454;SDS011;25155;41.890;23.446;2023-04-16T13:11:12;7.07;;;2.92;;
39454;SDS011;25155;41.890;23.446;2023-04-16T13:13:39;6.32;;;3.22;;
39454;SDS011;25155;41.890;23.446;2023-04-16T13:16:06;8.43;;;3.58;;
39454;SDS011;25155;41.890;23.446;2023-04-16T13:18:34;5.65;;;2.38;;
39454;SDS011;25155;41.890;23.446;2023-04-16T13:21:02;5.95;;;2.67;;
39454;SDS011;25155;41.890;23.446;2023-04-16T13:23:30;5.38;;;2.80;;
39454;SDS011;25155;41.890;23.446;2023-04-16T13:25:58;5.80;;;2.78;;
39454;SDS011;25155;41.890;23.446;2023-04-16T13:28:25;6.43;;;3.22;;
39454;SDS011;25155;41.890;23.446;2023-04-16T13:30:52;9.60;;;3.72;;
39454;SDS011;25155;41.890;23.446;2023-04-16T13:33:20;8.13;;;4.10;;
39454;SDS011;25155;41.890;23.446;2023-04-16T13:35:47;8.68;;;2.78;;
39454;SDS011;25155;41.890;23.446;2023-04-16T13:38:15;8.23;;;3.28;;
39454;SDS011;25155;41.890;23.446;2023-04-16T13:40:42;8.55;;;3.10;;
39454;SDS011;25155;41.890;23.446;2023-04-16T13:43:11;7.07;;;2.53;;
39454;SDS011;25155;41.890;23.446;2023-04-16T13:45:40;6.75;;;2.88;;
39454;SDS011;25155;41.890;23.446;2023-04-16T13:48:08;9.10;;;3.63;;
39454;SDS011;25155;41.890;23.446;2023-04-16T13:50:35;12.60;;;4.65;;
39454;SDS011;25155;41.890;23.446;2023-04-16T13:53:02;7.43;;;3.20;;
39454;SDS011;25155;41.890;23.446;2023-04-16T13:55:29;6.35;;;3.03;;
39454;SDS011;25155;41.890;23.446;2023-04-16T13:57:57;7.65;;;3.22;;
39454;SDS011;25155;41.890;23.446;2023-04-16T14:00:25;7.10;;;3.67;;
39454;SDS011;25155;41.890;23.446;2023-04-16T14:02:53;8.57;;;3.33;;
39454;SDS011;25155;41.890;23.446;2023-04-16T14:05:20;7.05;;;3.80;;
39454;SDS011;25155;41.890;23.446;2023-04-16T14:07:48;7.38;;;3.78;;
39454;SDS011;25155;41.890;23.446;2023-04-16T14:10:16;10.10;;;4.07;;
39454;SDS011;25155;41.890;23.446;2023-04-16T14:12:43;6.22;;;3.30;;
39454;SDS011;25155;41.890;23.446;2023-04-16T14:15:10;6.57;;;2.83;;
39454;SDS011;25155;41.890;23.446;2023-04-16T14:17:40;5.63;;;3.25;;
39454;SDS011;25155;41.890;23.446;2023-04-16T14:20:09;7.18;;;3.45;;
39454;SDS011;25155;41.890;23.446;2023-04-16T14:22:37;6.60;;;3.13;;
39454;SDS011;25155;41.890;23.446;2023-04-16T14:25:06;6.40;;;3.40;;
39454;SDS011;25155;41.890;23.446;2023-04-16T14:27:34;5.65;;;3.47;;
39454;SDS011;25155;41.890;23.446;2023-04-16T14:30:01;6.80;;;4.05;;
39454;SDS011;25155;41.890;23.446;2023-04-16T14:32:28;7.70;;;4.18;;
39454;SDS011;25155;41.890;23.446;2023-04-16T14:34:57;8.27;;;4.80;;
39454;SDS011;25155;41.890;23.446;2023-04-16T14:37:24;5.88;;;3.05;;
39454;SDS011;25155;41.890;23.446;2023-04-16T14:39:51;6.78;;;3.45;;
39454;SDS011;25155;41.890;23.446;2023-04-16T14:42:19;6.80;;;3.25;;